sensor_id;sensor_type;location;lat;lon;timestamp;pressure;altitude;pressure_sealevel;temperature;humidity
44697;BME280;57264;47.480;19.354;2023-01-08T00:01:31;99218.50;;;4.40;100.00
44697;BME280;57264;47.480;19.354;2023-01-08T00:03:56;99216.50;;;4.42;100.00
44697;BME280;57264;47.480;19.354;2023-01-08T00:06:22;99228.03;;;4.42;100.00
44697;BME280;57264;47.480;19.354;2023-01-08T00:08:49;99226.34;;;4.41;100.00
44697;BME280;57264;47.480;19.354;2023-01-08T00:11:15;99217.88;;;4.46;100.00
44697;BME280;57264;47.480;19.354;2023-01-08T00:13:40;99211.84;;;4.44;100.00
44697;BME280;57264;47.480;19.354;2023-01-08T00:16:09;99216.66;;;4.40;100.00
44697;BME280;57264;47.480;19.354;2023-01-08T00:18:35;99217.34;;;4.42;100.00
44697;BME280;57264;47.480;19.354;2023-01-08T00:21:01;99215.00;;;4.47;100.00
44697;BME280;57264;47.480;19.354;2023-01-08T00:23:27;99225.41;;;4.51;100.00
44697;BME280;57264;47.480;19.354;2023-01-08T00:25:52;99222.06;;;4.49;100.00
44697;BME280;57264;47.480;19.354;2023-01-08T00:28:18;99225.56;;;4.49;100.00
44697;BME280;57264;47.480;19.354;2023-01-08T00:30:45;99217.88;;;4.46;100.00
44697;BME280;57264;47.480;19.354;2023-01-08T00:33:11;99219.22;;;4.50;100.00
44697;BME280;57264;47.480;19.354;2023-01-08T00:35:37;99229.19;;;4.40;100.00
44697;BME280;57264;47.480;19.354;2023-01-08T00:38:03;99214.81;;;4.41;100.00
44697;BME280;57264;47.480;19.354;2023-01-08T00:40:29;99224.69;;;4.40;100.00
44697;BME280;57264;47.480;19.354;2023-01-08T00:42:54;99216.13;;;4.37;100.00
44697;BME280;57264;47.480;19.354;2023-01-08T00:45:20;99210.47;;;4.40;100.00
44697;BME280;57264;47.480;19.354;2023-01-08T00:47:45;99216.97;;;4.37;100.00
44697;BME280;57264;47.480;19.354;2023-01-08T00:50:11;99216.28;;;4.35;100.00
44697;BME280;57264;47.480;19.354;2023-01-08T00:52:37;99223.00;;;4.39;100.00
44697;BME280;57264;47.480;19.354;2023-01-08T00:55:03;99224.97;;;4.37;100.00
44697;BME280;57264;47.480;19.354;2023-01-08T00:57:36;99224.31;;;4.35;100.00
44697;BME280;57264;47.480;19.354;2023-01-08T01:00:04;99232.19;;;4.37;100.00
44697;BME280;57264;47.480;19.354;2023-01-08T01:02:30;99231.69;;;4.41;100.00
44697;BME280;57264;47.480;19.354;2023-01-08T01:04:56;99232.03;;;4.38;100.00
44697;BME280;57264;47.480;19.354;2023-01-08T01:07:21;99237.91;;;4.42;100.00
44697;BME280;57264;47.480;19.354;2023-01-08T01:09:47;99241.41;;;4.42;100.00
44697;BME280;57264;47.480;19.354;2023-01-08T01:12:12;99244.38;;;4.39;100.00
44697;BME280;57264;47.480;19.354;2023-01-08T01:14:38;99245.41;;;4.38;100.00
44697;BME280;57264;47.480;19.354;2023-01-08T01:17:04;99245.41;;;4.38;100.00
44697;BME280;57264;47.480;19.354;2023-01-08T01:19:29;99239.03;;;4.39;100.00
44697;BME280;57264;47.480;19.354;2023-01-08T01:21:55;99244.72;;;4.36;100.00
44697;BME280;57264;47.480;19.354;2023-01-08T01:24:20;99246.22;;;4.39;100.00
44697;BME280;57264;47.480;19.354;2023-01-08T01:26:52;99245.53;;;4.37;100.00
44697;BME280;57264;47.480;19.354;2023-01-08T01:29:20;99238.34;;;4.37;100.00
44697;BME280;57264;47.480;19.354;2023-01-08T01:31:46;99230.88;;;4.41;100.00
44697;BME280;57264;47.480;19.354;2023-01-08T01:34:11;99216.50;;;4.42;100.00
44697;BME280;57264;47.480;19.354;2023-01-08T01:36:37;99212.28;;;4.39;100.00
44697;BME280;57264;47.480;19.354;2023-01-08T01:39:02;99209.94;;;4.36;100.00
44697;BME280;57264;47.480;19.354;2023-01-08T01:41:46;99210.94;;;4.35;100.00
44697;BME280;57264;47.480;19.354;2023-01-08T01:44:43;99199.09;;;4.38;100.00
44697;BME280;57264;47.480;19.354;2023-01-08T01:50:10;99183.53;;;4.33;100.00
44697;BME280;57264;47.480;19.354;2023-01-08T01:52:44;99187.88;;;4.34;100.00
44697;BME280;57264;47.480;19.354;2023-01-08T01:55:12;99182.00;;;4.31;100.00
44697;BME280;57264;47.480;19.354;2023-01-08T01:57:38;99187.06;;;4.34;100.00
44697;BME280;57264;47.480;19.354;2023-01-08T02:00:07;99180.00;;;4.33;100.00
44697;BME280;57264;47.480;19.354;2023-01-08T02:02:33;99178.16;;;4.33;100.00
44697;BME280;57264;47.480;19.354;2023-01-08T02:05:00;99174.81;;;4.31;100.00
44697;BME280;57264;47.480;19.354;2023-01-08T02:12:52;99167.53;;;4.41;100.00
44697;BME280;57264;47.480;19.354;2023-01-08T02:15:20;99164.81;;;4.33;100.00
44697;BME280;57264;47.480;19.354;2023-01-08T02:18:08;99167.69;;;4.40;100.00
44697;BME280;57264;47.480;19.354;2023-01-08T02:21:10;99153.31;;;4.41;100.00
44697;BME280;57264;47.480;19.354;2023-01-08T02:23:55;99145.31;;;4.41;100.00
44697;BME280;57264;47.480;19.354;2023-01-08T02:26:34;99148.81;;;4.41;100.00
44697;BME280;57264;47.480;19.354;2023-01-08T02:29:07;99143.47;;;4.41;100.00
44697;BME280;57264;47.480;19.354;2023-01-08T02:31:36;99142.78;;;4.39;100.00
44697;BME280;57264;47.480;19.354;2023-01-08T02:34:03;99143.13;;;4.36;100.00
44697;BME280;57264;47.480;19.354;2023-01-08T02:44:46;99132.72;;;4.33;100.00
44697;BME280;57264;47.480;19.354;2023-01-08T02:47:31;99132.22;;;4.30;100.00
44697;BME280;57264;47.480;19.354;2023-01-08T02:50:22;99125.88;;;4.31;100.00
44697;BME280;57264;47.480;19.354;2023-01-08T02:52:59;99122.50;;;4.29;100.00
44697;BME280;57264;47.480;19.354;2023-01-08T02:55:29;99121.53;;;4.30;100.00
44697;BME280;57264;47.480;19.354;2023-01-08T02:57:57;99118.69;;;4.31;100.00
44697;BME280;57264;47.480;19.354;2023-01-08T03:00:23;99127.38;;;4.33;100.00
44697;BME280;57264;47.480;19.354;2023-01-08T03:02:53;99114.81;;;4.25;100.00
44697;BME280;57264;47.480;19.354;2023-01-08T03:05:23;99116.16;;;4.21;100.00
44697;BME280;57264;47.480;19.354;2023-01-08T03:07:50;99106.63;;;4.19;100.00
44697;BME280;57264;47.480;19.354;2023-01-08T03:10:20;99118.47;;;4.24;100.00
44697;BME280;57264;47.480;19.354;2023-01-08T03:12:58;99114.81;;;4.25;100.00
44697;BME280;57264;47.480;19.354;2023-01-08T03:15:35;99105.78;;;4.26;100.00
44697;BME280;57264;47.480;19.354;2023-01-08T03:18:08;99108.94;;;4.22;100.00
44697;BME280;57264;47.480;19.354;2023-01-08T03:20:37;99123.81;;;4.24;100.00
44697;BME280;57264;47.480;19.354;2023-01-08T03:23:06;99123.53;;;4.28;100.00
44697;BME280;57264;47.480;19.354;2023-01-08T03:25:37;99124.69;;;4.33;100.00
44697;BME280;57264;47.480;19.354;2023-01-08T03:28:07;99123.03;;;4.32;100.00
44697;BME280;57264;47.480;19.354;2023-01-08T03:30:38;99118.00;;;4.29;100.00
44697;BME280;57264;47.480;19.354;2023-01-08T03:33:07;99111.00;;;4.28;100.00
44697;BME280;57264;47.480;19.354;2023-01-08T03:35:36;99114.00;;;4.25;100.00
44697;BME280;57264;47.480;19.354;2023-01-08T03:38:10;99099.09;;;4.22;100.00
44697;BME280;57264;47.480;19.354;2023-01-08T03:40:44;99092.91;;;4.22;100.00
44697;BME280;57264;47.480;19.354;2023-01-08T03:43:11;99106.28;;;4.22;100.00
44697;BME280;57264;47.480;19.354;2023-01-08T03:45:42;99100.91;;;4.14;100.00
44697;BME280;57264;47.480;19.354;2023-01-08T03:48:10;99116.00;;;4.23;100.00
44697;BME280;57264;47.480;19.354;2023-01-08T03:50:35;99114.63;;;4.19;100.00
44697;BME280;57264;47.480;19.354;2023-01-08T03:53:01;99103.94;;;4.19;100.00
44697;BME280;57264;47.480;19.354;2023-01-08T03:55:27;99102.94;;;4.20;100.00
44697;BME280;57264;47.480;19.354;2023-01-08T03:57:52;99098.59;;;4.19;100.00
44697;BME280;57264;47.480;19.354;2023-01-08T04:00:18;99098.75;;;4.17;100.00
44697;BME280;57264;47.480;19.354;2023-01-08T04:02:43;99097.91;;;4.17;100.00
44697;BME280;57264;47.480;19.354;2023-01-08T04:05:09;99089.53;;;4.12;100.00
44697;BME280;57264;47.480;19.354;2023-01-08T04:07:35;99086.03;;;4.11;100.00
44697;BME280;57264;47.480;19.354;2023-01-08T04:10:01;99080.97;;;4.08;100.00
44697;BME280;57264;47.480;19.354;2023-01-08T04:12:27;99073.81;;;4.09;100.00
44697;BME280;57264;47.480;19.354;2023-01-08T04:14:52;99075.81;;;4.07;100.00
44697;BME280;57264;47.480;19.354;2023-01-08T04:21:11;99068.94;;;4.04;100.00
44697;BME280;57264;47.480;19.354;2023-01-08T04:23:37;99072.97;;;4.08;100.00
44697;BME280;57264;47.480;19.354;2023-01-08T04:29:08;99069.75;;;3.96;100.00
44697;BME280;57264;47.480;19.354;2023-01-08T04:32:38;99078.59;;;3.97;100.00
44697;BME280;57264;47.480;19.354;2023-01-08T04:42:47;99078.06;;;3.93;100.00
44697;BME280;57264;47.480;19.354;2023-01-08T04:45:12;99087.94;;;3.93;100.00
44697;BME280;57264;47.480;19.354;2023-01-08T04:47:38;99090.78;;;3.99;100.00
44697;BME280;57264;47.480;19.354;2023-01-08T04:50:04;99086.25;;;3.92;100.00
44697;BME280;57264;47.480;19.354;2023-01-08T04:52:29;99081.63;;;4.02;100.00
44697;BME280;57264;47.480;19.354;2023-01-08T04:54:55;99080.78;;;4.01;100.00
44697;BME280;57264;47.480;19.354;2023-01-08T04:57:20;99077.78;;;3.96;100.00
44697;BME280;57264;47.480;19.354;2023-01-08T04:59:46;99086.47;;;3.98;100.00
44697;BME280;57264;47.480;19.354;2023-01-08T05:02:11;99090.78;;;3.99;100.00
44697;BME280;57264;47.480;19.354;2023-01-08T05:04:39;99093.31;;;4.01;100.00
44697;BME280;57264;47.480;19.354;2023-01-08T05:07:05;99105.22;;;4.07;100.00
44697;BME280;57264;47.480;19.354;2023-01-08T05:09:32;99100.50;;;4.00;100.00
44697;BME280;57264;47.480;19.354;2023-01-08T05:11:58;99087.16;;;4.00;100.00
44697;BME280;57264;47.480;19.354;2023-01-08T05:14:24;99086.84;;;4.12;100.00
44697;BME280;57264;47.480;19.354;2023-01-08T05:16:49;99080.00;;;4.09;100.00
44697;BME280;57264;47.480;19.354;2023-01-08T05:19:15;99078.50;;;4.07;100.00
44697;BME280;57264;47.480;19.354;2023-01-08T05:21:40;99086.84;;;4.12;100.00
44697;BME280;57264;47.480;19.354;2023-01-08T05:24:06;99093.56;;;4.16;100.00
44697;BME280;57264;47.480;19.354;2023-01-08T05:26:34;99076.69;;;4.15;100.00
44697;BME280;57264;47.480;19.354;2023-01-08T05:28:59;99078.03;;;4.19;100.00
44697;BME280;57264;47.480;19.354;2023-01-08T05:31:25;99077.53;;;4.16;100.00
44697;BME280;57264;47.480;19.354;2023-01-08T05:33:51;99080.88;;;4.18;100.00
44697;BME280;57264;47.480;19.354;2023-01-08T05:36:16;99084.22;;;4.20;100.00
44697;BME280;57264;47.480;19.354;2023-01-08T05:38:42;99086.13;;;4.01;100.00
44697;BME280;57264;47.480;19.354;2023-01-08T05:41:08;99088.50;;;4.04;100.00
44697;BME280;57264;47.480;19.354;2023-01-08T05:43:34;99083.19;;;4.13;100.00
44697;BME280;57264;47.480;19.354;2023-01-08T05:46:01;99093.56;;;4.16;100.00
44697;BME280;57264;47.480;19.354;2023-01-08T05:48:28;99083.16;;;4.04;100.00
44697;BME280;57264;47.480;19.354;2023-01-08T05:50:54;99085.16;;;4.02;100.00
44697;BME280;57264;47.480;19.354;2023-01-08T05:53:20;99078.84;;;4.12;100.00
44697;BME280;57264;47.480;19.354;2023-01-08T05:55:46;99063.97;;;4.09;100.00
44697;BME280;57264;47.480;19.354;2023-01-08T05:58:11;99065.63;;;4.10;100.00
44697;BME280;57264;47.480;19.354;2023-01-08T06:00:38;99086.56;;;4.15;100.00
44697;BME280;57264;47.480;19.354;2023-01-08T06:03:03;99084.84;;;4.14;100.00
44697;BME280;57264;47.480;19.354;2023-01-08T06:05:30;99081.50;;;4.12;100.00
44697;BME280;57264;47.480;19.354;2023-01-08T06:07:57;99075.00;;;4.14;100.00
44697;BME280;57264;47.480;19.354;2023-01-08T06:10:22;99075.53;;;4.18;100.00
44697;BME280;57264;47.480;19.354;2023-01-08T06:12:48;99074.34;;;4.20;100.00
44697;BME280;57264;47.480;19.354;2023-01-08T06:15:13;99068.09;;;4.03;100.00
44697;BME280;57264;47.480;19.354;2023-01-08T06:17:39;99057.25;;;4.05;100.00
44697;BME280;57264;47.480;19.354;2023-01-08T06:20:05;99059.28;;;4.11;100.00
44697;BME280;57264;47.480;19.354;2023-01-08T06:22:30;99044.56;;;4.07;100.00
44697;BME280;57264;47.480;19.354;2023-01-08T06:24:56;99044.44;;;4.09;100.00
44697;BME280;57264;47.480;19.354;2023-01-08T06:27:21;99047.41;;;4.05;100.00
44697;BME280;57264;47.480;19.354;2023-01-08T06:29:47;99052.75;;;4.05;100.00
44697;BME280;57264;47.480;19.354;2023-01-08T06:32:12;99047.25;;;4.07;100.00
44697;BME280;57264;47.480;19.354;2023-01-08T06:34:38;99053.75;;;4.04;100.00
44697;BME280;57264;47.480;19.354;2023-01-08T06:37:03;99050.22;;;4.04;100.00
44697;BME280;57264;47.480;19.354;2023-01-08T06:39:28;99062.47;;;4.07;100.00
44697;BME280;57264;47.480;19.354;2023-01-08T06:41:54;99049.09;;;4.07;100.00
44697;BME280;57264;47.480;19.354;2023-01-08T06:44:19;99050.59;;;4.09;100.00
44697;BME280;57264;47.480;19.354;2023-01-08T06:46:45;99050.75;;;4.08;100.00
44697;BME280;57264;47.480;19.354;2023-01-08T06:49:11;99053.09;;;4.02;100.00
44697;BME280;57264;47.480;19.354;2023-01-08T06:51:38;99047.88;;;4.01;100.00
44697;BME280;57264;47.480;19.354;2023-01-08T06:54:03;99049.41;;;4.03;100.00
44697;BME280;57264;47.480;19.354;2023-01-08T06:56:29;99044.34;;;3.92;100.00
44697;BME280;57264;47.480;19.354;2023-01-08T06:58:54;99042.69;;;3.99;100.00
44697;BME280;57264;47.480;19.354;2023-01-08T07:01:20;99045.59;;;4.14;100.00
44697;BME280;57264;47.480;19.354;2023-01-08T07:03:47;99049.81;;;4.17;100.00
44697;BME280;57264;47.480;19.354;2023-01-08T07:06:17;99057.81;;;4.17;100.00
44697;BME280;57264;47.480;19.354;2023-01-08T07:08:43;99056.28;;;4.14;100.00
44697;BME280;57264;47.480;19.354;2023-01-08T07:11:09;99050.78;;;4.16;100.00
44697;BME280;57264;47.480;19.354;2023-01-08T07:13:35;99057.75;;;4.00;100.00
44697;BME280;57264;47.480;19.354;2023-01-08T07:16:19;99070.72;;;3.95;100.00
44697;BME280;57264;47.480;19.354;2023-01-08T07:18:44;99071.16;;;4.09;100.00
44697;BME280;57264;47.480;19.354;2023-01-08T07:21:10;99064.53;;;4.21;100.00
44697;BME280;57264;47.480;19.354;2023-01-08T07:23:36;99060.47;;;4.09;100.00
44697;BME280;57264;47.480;19.354;2023-01-08T07:26:04;99063.13;;;4.09;100.00
44697;BME280;57264;47.480;19.354;2023-01-08T07:28:32;99063.44;;;4.05;100.00
44697;BME280;57264;47.480;19.354;2023-01-08T07:31:01;99062.75;;;4.03;100.00
44697;BME280;57264;47.480;19.354;2023-01-08T07:33:27;99054.09;;;4.10;100.00
44697;BME280;57264;47.480;19.354;2023-01-08T07:35:53;99055.94;;;4.09;100.00
44697;BME280;57264;47.480;19.354;2023-01-08T07:38:19;99059.44;;;4.10;100.00
44697;BME280;57264;47.480;19.354;2023-01-08T07:40:45;99060.47;;;4.09;100.00
44697;BME280;57264;47.480;19.354;2023-01-08T07:43:10;99055.75;;;4.02;100.00
44697;BME280;57264;47.480;19.354;2023-01-08T07:45:39;99052.25;;;4.10;100.00
44697;BME280;57264;47.480;19.354;2023-01-08T07:48:05;99050.78;;;4.16;100.00
44697;BME280;57264;47.480;19.354;2023-01-08T07:50:31;99051.44;;;4.10;100.00
44697;BME280;57264;47.480;19.354;2023-01-08T07:52:58;99040.09;;;4.16;100.00
44697;BME280;57264;47.480;19.354;2023-01-08T07:57:48;99051.84;;;4.23;100.00
44697;BME280;57264;47.480;19.354;2023-01-08T08:00:14;99044.84;;;3.96;100.00
44697;BME280;57264;47.480;19.354;2023-01-08T08:02:40;99034.88;;;4.06;100.00
44697;BME280;57264;47.480;19.354;2023-01-08T08:05:05;99049.50;;;4.28;100.00
44697;BME280;57264;47.480;19.354;2023-01-08T08:07:31;99039.16;;;4.33;100.00
44697;BME280;57264;47.480;19.354;2023-01-08T08:09:56;99043.69;;;4.41;100.00
44697;BME280;57264;47.480;19.354;2023-01-08T08:12:22;99039.78;;;4.27;100.00
44697;BME280;57264;47.480;19.354;2023-01-08T08:14:47;99033.50;;;4.36;100.00
44697;BME280;57264;47.480;19.354;2023-01-08T08:17:13;99031.47;;;4.30;100.00
44697;BME280;57264;47.480;19.354;2023-01-08T08:19:38;99036.34;;;4.43;100.00
44697;BME280;57264;47.480;19.354;2023-01-08T08:22:08;99024.16;;;4.49;100.00
44697;BME280;57264;47.480;19.354;2023-01-08T08:24:33;99027.16;;;4.45;100.00
44697;BME280;57264;47.480;19.354;2023-01-08T08:26:58;99024.16;;;4.49;100.00
44697;BME280;57264;47.480;19.354;2023-01-08T08:29:24;99019.16;;;4.62;100.00
44697;BME280;57264;47.480;19.354;2023-01-08T08:31:49;99012.81;;;4.55;100.00
44697;BME280;57264;47.480;19.354;2023-01-08T08:34:15;99008.47;;;4.54;100.00
44697;BME280;57264;47.480;19.354;2023-01-08T08:36:41;99003.59;;;4.41;100.00
44697;BME280;57264;47.480;19.354;2023-01-08T08:39:06;99011.97;;;4.46;100.00
44697;BME280;57264;47.480;19.354;2023-01-08T08:41:32;99009.78;;;4.50;100.00
44697;BME280;57264;47.480;19.354;2023-01-08T08:43:57;98999.59;;;4.45;100.00
44697;BME280;57264;47.480;19.354;2023-01-08T08:46:23;99000.59;;;4.60;100.00
44697;BME280;57264;47.480;19.354;2023-01-08T08:48:49;99007.97;;;4.50;100.00
44697;BME280;57264;47.480;19.354;2023-01-08T08:51:15;99010.16;;;4.55;100.00
44697;BME280;57264;47.480;19.354;2023-01-08T08:53:40;98994.78;;;4.57;100.00
44697;BME280;57264;47.480;19.354;2023-01-08T08:56:06;98993.94;;;4.56;100.00
44697;BME280;57264;47.480;19.354;2023-01-08T08:58:32;99002.25;;;4.37;100.00
44697;BME280;57264;47.480;19.354;2023-01-08T09:01:02;99004.28;;;4.59;100.00
44697;BME280;57264;47.480;19.354;2023-01-08T09:03:29;99002.63;;;4.83;100.00
44697;BME280;57264;47.480;19.354;2023-01-08T09:05:54;98996.81;;;4.88;100.00
44697;BME280;57264;47.480;19.354;2023-01-08T09:08:20;98991.78;;;4.76;100.00
44697;BME280;57264;47.480;19.354;2023-01-08T09:10:45;99000.13;;;4.57;100.00
44697;BME280;57264;47.480;19.354;2023-01-08T09:13:11;98999.47;;;4.71;100.00
44697;BME280;57264;47.480;19.354;2023-01-08T09:15:36;98996.44;;;4.74;100.00
44697;BME280;57264;47.480;19.354;2023-01-08T09:18:02;99001.66;;;4.84;100.00
44697;BME280;57264;47.480;19.354;2023-01-08T09:20:28;98991.63;;;5.02;100.00
44697;BME280;57264;47.480;19.354;2023-01-08T09:22:57;98994.81;;;4.90;100.00
44697;BME280;57264;47.480;19.354;2023-01-08T09:25:23;98987.25;;;5.01;100.00
44697;BME280;57264;47.480;19.354;2023-01-08T09:27:48;98986.75;;;4.98;100.00
44697;BME280;57264;47.480;19.354;2023-01-08T09:30:14;98978.00;;;5.37;100.00
44697;BME280;57264;47.480;19.354;2023-01-08T09:32:39;98981.06;;;5.34;100.00
44697;BME280;57264;47.480;19.354;2023-01-08T09:35:05;98983.75;;;5.17;100.00
44697;BME280;57264;47.480;19.354;2023-01-08T09:37:30;98975.88;;;4.83;100.00
44697;BME280;57264;47.480;19.354;2023-01-08T09:39:56;98970.22;;;4.94;100.00
44697;BME280;57264;47.480;19.354;2023-01-08T09:42:25;98972.16;;;5.33;100.00
44697;BME280;57264;47.480;19.354;2023-01-08T09:44:54;98977.56;;;5.17;100.00
44697;BME280;57264;47.480;19.354;2023-01-08T09:47:31;98968.72;;;5.72;100.00
44697;BME280;57264;47.480;19.354;2023-01-08T09:50:08;98964.19;;;5.73;100.00
44697;BME280;57264;47.480;19.354;2023-01-08T09:52:36;98959.03;;;5.71;100.00
44697;BME280;57264;47.480;19.354;2023-01-08T09:55:11;98955.75;;;6.00;100.00
44697;BME280;57264;47.480;19.354;2023-01-08T09:57:38;98954.63;;;5.78;100.00
44697;BME280;57264;47.480;19.354;2023-01-08T10:00:20;98948.09;;;5.73;100.00
44697;BME280;57264;47.480;19.354;2023-01-08T10:02:49;98939.00;;;5.90;100.00
44697;BME280;57264;47.480;19.354;2023-01-08T10:05:18;98938.50;;;6.26;100.00
44697;BME280;57264;47.480;19.354;2023-01-08T10:07:44;98920.63;;;6.64;100.00
44697;BME280;57264;47.480;19.354;2023-01-08T10:10:17;98920.72;;;6.56;100.00
44697;BME280;57264;47.480;19.354;2023-01-08T10:12:44;98928.00;;;6.39;100.00
44697;BME280;57264;47.480;19.354;2023-01-08T10:15:14;98910.88;;;6.48;100.00
44697;BME280;57264;47.480;19.354;2023-01-08T10:20:13;98894.09;;;6.69;100.00
44697;BME280;57264;47.480;19.354;2023-01-08T10:22:39;98885.81;;;6.94;100.00
44697;BME280;57264;47.480;19.354;2023-01-08T10:25:14;98887.47;;;6.80;100.00
44697;BME280;57264;47.480;19.354;2023-01-08T10:27:49;98876.31;;;7.06;100.00
44697;BME280;57264;47.480;19.354;2023-01-08T10:30:18;98877.38;;;6.97;100.00
44697;BME280;57264;47.480;19.354;2023-01-08T10:32:52;98885.38;;;7.20;100.00
44697;BME280;57264;47.480;19.354;2023-01-08T10:35:21;98880.84;;;7.50;100.00
44697;BME280;57264;47.480;19.354;2023-01-08T10:37:48;98875.84;;;7.47;100.00
44697;BME280;57264;47.480;19.354;2023-01-08T10:40:34;98871.94;;;7.20;100.00
44697;BME280;57264;47.480;19.354;2023-01-08T10:43:06;98864.81;;;7.57;100.00
44697;BME280;57264;47.480;19.354;2023-01-08T10:45:33;98854.97;;;7.64;100.00
44697;BME280;57264;47.480;19.354;2023-01-08T10:48:04;98849.66;;;7.86;100.00
44697;BME280;57264;47.480;19.354;2023-01-08T10:50:32;98847.31;;;7.02;100.00
44697;BME280;57264;47.480;19.354;2023-01-08T10:53:03;98843.97;;;7.44;100.00
44697;BME280;57264;47.480;19.354;2023-01-08T10:55:34;98837.41;;;7.17;100.00
44697;BME280;57264;47.480;19.354;2023-01-08T11:00:36;98835.03;;;7.74;100.00
44697;BME280;57264;47.480;19.354;2023-01-08T11:03:07;98842.03;;;7.38;100.00
44697;BME280;57264;47.480;19.354;2023-01-08T11:05:38;98838.41;;;7.16;100.00
44697;BME280;57264;47.480;19.354;2023-01-08T11:08:14;98826.00;;;7.45;100.00
44697;BME280;57264;47.480;19.354;2023-01-08T11:10:42;98822.44;;;7.96;100.00
44697;BME280;57264;47.480;19.354;2023-01-08T11:13:18;98814.38;;;8.39;100.00
44697;BME280;57264;47.480;19.354;2023-01-08T11:15:44;98818.28;;;8.36;100.00
44697;BME280;57264;47.480;19.354;2023-01-08T11:18:21;98813.00;;;7.63;100.00
44697;BME280;57264;47.480;19.354;2023-01-08T11:20:48;98803.31;;;7.33;100.00
44697;BME280;57264;47.480;19.354;2023-01-08T11:23:22;98801.88;;;7.00;100.00
44697;BME280;57264;47.480;19.354;2023-01-08T11:31:42;98784.16;;;7.72;100.00
44697;BME280;57264;47.480;19.354;2023-01-08T11:37:25;98771.31;;;8.10;100.00
44697;BME280;57264;47.480;19.354;2023-01-08T11:39:52;98761.28;;;8.26;100.00
44697;BME280;57264;47.480;19.354;2023-01-08T11:53:51;98745.78;;;8.28;100.00
44697;BME280;57264;47.480;19.354;2023-01-08T11:56:38;98737.16;;;8.11;100.00
44697;BME280;57264;47.480;19.354;2023-01-08T12:02:11;98738.50;;;8.22;100.00
44697;BME280;57264;47.480;19.354;2023-01-08T12:04:54;98737.41;;;8.16;100.00
44697;BME280;57264;47.480;19.354;2023-01-08T12:21:55;98725.50;;;8.54;100.00
44697;BME280;57264;47.480;19.354;2023-01-08T12:27:53;98732.06;;;9.14;100.00
44697;BME280;57264;47.480;19.354;2023-01-08T12:30:39;98717.09;;;9.05;100.00
44697;BME280;57264;47.480;19.354;2023-01-08T12:33:12;98721.38;;;9.41;100.00
44697;BME280;57264;47.480;19.354;2023-01-08T12:35:45;98722.84;;;9.43;100.00
44697;BME280;57264;47.480;19.354;2023-01-08T12:38:12;98719.91;;;9.31;100.00
44697;BME280;57264;47.480;19.354;2023-01-08T12:40:51;98721.13;;;9.29;100.00
44697;BME280;57264;47.480;19.354;2023-01-08T12:43:26;98716.16;;;9.26;100.00
44697;BME280;57264;47.480;19.354;2023-01-08T12:45:58;98723.25;;;9.40;100.00
44697;BME280;57264;47.480;19.354;2023-01-08T12:48:27;98723.00;;;9.28;100.00
44697;BME280;57264;47.480;19.354;2023-01-08T12:53:47;98709.94;;;9.25;100.00
44697;BME280;57264;47.480;19.354;2023-01-08T13:04:49;98711.75;;;9.18;100.00
44697;BME280;57264;47.480;19.354;2023-01-08T13:07:40;98707.22;;;9.19;100.00
44697;BME280;57264;47.480;19.354;2023-01-08T13:10:18;98708.25;;;9.18;100.00
44697;BME280;57264;47.480;19.354;2023-01-08T13:12:49;98707.44;;;9.17;100.00
44697;BME280;57264;47.480;19.354;2023-01-08T13:15:23;98709.69;;;9.20;100.00
44697;BME280;57264;47.480;19.354;2023-01-08T13:17:51;98711.13;;;9.16;100.00
44697;BME280;57264;47.480;19.354;2023-01-08T13:20:23;98711.56;;;9.20;100.00
44697;BME280;57264;47.480;19.354;2023-01-08T13:23:04;98704.94;;;9.22;100.00
44697;BME280;57264;47.480;19.354;2023-01-08T13:25:32;98701.84;;;9.19;100.00
44697;BME280;57264;47.480;19.354;2023-01-08T13:27:59;98706.00;;;9.21;100.00
44697;BME280;57264;47.480;19.354;2023-01-08T13:30:37;98701.00;;;9.18;100.00
44697;BME280;57264;47.480;19.354;2023-01-08T13:36:20;98695.59;;;9.18;100.00
44697;BME280;57264;47.480;19.354;2023-01-08T13:41:26;98689.34;;;9.04;100.00
44697;BME280;57264;47.480;19.354;2023-01-08T13:46:52;98681.72;;;9.15;100.00
44697;BME280;57264;47.480;19.354;2023-01-08T13:49:27;98682.94;;;9.12;100.00
44697;BME280;57264;47.480;19.354;2023-01-08T13:51:53;98681.91;;;9.13;100.00
44697;BME280;57264;47.480;19.354;2023-01-08T13:54:36;98683.38;;;9.16;100.00
44697;BME280;57264;47.480;19.354;2023-01-08T13:57:11;98680.88;;;9.14;100.00
44697;BME280;57264;47.480;19.354;2023-01-08T13:59:56;98668.44;;;9.13;100.00
44697;BME280;57264;47.480;19.354;2023-01-08T14:02:24;98676.72;;;9.11;100.00
44697;BME280;57264;47.480;19.354;2023-01-08T14:04:51;98675.28;;;9.09;100.00
44697;BME280;57264;47.480;19.354;2023-01-08T14:07:17;98677.34;;;9.07;100.00
44697;BME280;57264;47.480;19.354;2023-01-08T14:09:43;98686.84;;;9.03;100.00
44697;BME280;57264;47.480;19.354;2023-01-08T14:12:14;98689.25;;;8.84;100.00
44697;BME280;57264;47.480;19.354;2023-01-08T14:14:45;98691.94;;;8.84;100.00
44697;BME280;57264;47.480;19.354;2023-01-08T14:17:16;98680.34;;;8.84;100.00
44697;BME280;57264;47.480;19.354;2023-01-08T14:19:43;98685.47;;;8.79;100.00
44697;BME280;57264;47.480;19.354;2023-01-08T14:22:20;98681.50;;;8.68;100.00
44697;BME280;57264;47.480;19.354;2023-01-08T14:24:55;98683.19;;;8.69;100.00
44697;BME280;57264;47.480;19.354;2023-01-08T14:27:24;98682.91;;;8.64;100.00
44697;BME280;57264;47.480;19.354;2023-01-08T14:29:50;98679.41;;;8.63;100.00
44697;BME280;57264;47.480;19.354;2023-01-08T14:32:27;98689.13;;;8.64;100.00
44697;BME280;57264;47.480;19.354;2023-01-08T14:34:58;98682.69;;;8.59;100.00
44697;BME280;57264;47.480;19.354;2023-01-08T14:37:25;98674.22;;;8.62;100.00
44697;BME280;57264;47.480;19.354;2023-01-08T14:39:51;98678.13;;;8.59;100.00